Time;durP1;ratioP1;P1;durP2;ratioP2;P2;SDS_P1;SDS_P2;PMS_P1;PMS_P2;Temp;Humidity;BMP_temperature;BMP_pressure;BME280_temperature;BME280_humidity;BME280_pressure;Samples;Min_cycle;Max_cycle;Signal;HPM_P1;HPM_P2
2023/04/25 00:01:18;;;;;;;0.52;0.20;;;;;;;12.76;40.73;99539.53;5090918;28;20044;-69
2023/04/25 00:03:45;;;;;;;0.10;0.10;;;;;;;12.79;40.75;99537.28;5095308;28;20138;-70
2023/04/25 00:06:12;;;;;;;0.10;0.10;;;;;;;12.81;41.07;99538.63;5084028;28;20138;-69
2023/04/25 00:08:39;;;;;;;0.20;0.20;;;;;;;12.82;41.17;99544.91;5103801;28;20054;-71
2023/04/25 00:11:06;;;;;;;0.20;0.20;;;;;;;12.73;41.66;99544.78;5077032;28;20138;-71
2023/04/25 00:13:32;;;;;;;0.20;0.20;;;;;;;12.63;41.87;99545.72;5117319;27;20175;-70
2023/04/25 00:15:59;;;;;;;0.10;0.10;;;;;;;12.57;42.06;99544.97;5127056;27;20071;-71
2023/04/25 00:18:29;;;;;;;0.20;0.20;;;;;;;12.60;42.44;99546.31;5078179;28;20044;-70
2023/04/25 00:20:55;;;;;;;0.20;0.20;;;;;;;12.58;42.20;99534.84;5117154;27;20043;-69
2023/04/25 00:23:22;;;;;;;0.22;0.20;;;;;;;12.60;42.19;99529.88;5121229;27;20063;-69
2023/04/25 00:25:50;;;;;;;0.10;0.10;;;;;;;12.56;42.47;99528.81;5116792;27;20199;-69
2023/04/25 00:28:17;;;;;;;0.10;0.10;;;;;;;12.54;42.58;99537.34;5120639;27;20074;-69
2023/04/25 00:30:43;;;;;;;0.10;0.10;;;;;;;12.52;42.59;99544.22;5108145;27;20502;-69
2023/04/25 00:33:10;;;;;;;0.20;0.10;;;;;;;12.41;42.92;99532.56;5086158;27;20047;-69
2023/04/25 00:35:36;;;;;;;0.10;0.10;;;;;;;12.32;43.35;99533.22;5113147;27;20618;-69
2023/04/25 00:38:02;;;;;;;0.55;0.15;;;;;;;12.26;43.83;99539.06;5109684;27;20473;-69
2023/04/25 00:40:29;;;;;;;0.57;0.20;;;;;;;12.15;44.00;99533.72;5099967;27;20047;-70
2023/04/25 00:42:56;;;;;;;0.10;0.10;;;;;;;12.06;44.53;99538.19;5099387;27;20506;-69
2023/04/25 00:45:26;;;;;;;;;;;;;;;11.94;44.82;99535.81;5125698;27;20514;-69
2023/04/25 00:47:54;;;;;;;0.45;0.10;;;;;;;11.88;44.64;99545.22;5108475;27;19924;-69
2023/04/25 00:50:20;;;;;;;0.20;0.20;;;;;;;11.80;44.99;99529.41;5081632;28;20043;-69
2023/04/25 00:52:46;;;;;;;0.10;0.10;;;;;;;11.80;45.08;99529.41;5111779;27;20074;-69
2023/04/25 00:55:13;;;;;;;0.70;0.20;;;;;;;11.82;45.25;99533.50;5076748;28;20043;-70
2023/04/25 00:57:40;;;;;;;0.10;0.10;;;;;;;11.82;44.93;99532.66;5099408;28;20063;-70
2023/04/25 01:00:10;;;;;;;0.10;0.10;;;;;;;11.80;45.27;99537.63;5119809;27;20075;-70
2023/04/25 01:02:37;;;;;;;0.13;0.13;;;;;;;11.83;45.22;99532.38;5116429;27;20042;-69
2023/04/25 01:05:04;;;;;;;0.20;0.20;;;;;;;11.88;45.47;99526.84;5072929;27;20070;-69
2023/04/25 01:07:33;;;;;;;0.38;0.38;;;;;;;11.96;45.33;99522.66;5102333;28;20951;-69
2023/04/25 01:10:00;;;;;;;0.10;0.10;;;;;;;11.96;45.31;99524.59;5114938;27;20444;-70
2023/04/25 01:12:30;;;;;;;0.15;0.15;;;;;;;11.94;45.80;99527.59;5108844;27;20051;-69
2023/04/25 01:14:57;;;;;;;0.20;0.20;;;;;;;11.96;45.94;99521.84;5121016;27;20047;-70
2023/04/25 01:17:24;;;;;;;0.20;0.20;;;;;;;11.98;45.84;99519.63;5118596;27;20092;-69
2023/04/25 01:19:51;;;;;;;0.20;0.20;;;;;;;12.03;45.77;99522.34;5108511;27;20055;-70
2023/04/25 01:22:19;;;;;;;0.10;0.10;;;;;;;12.00;45.82;99511.94;5116873;27;20946;-70
2023/04/25 01:24:46;;;;;;;0.10;0.10;;;;;;;12.05;45.86;99509.97;5091411;28;20043;-70
2023/04/25 01:27:13;;;;;;;0.10;0.10;;;;;;;12.10;45.71;99516.50;5069301;28;20134;-70
2023/04/25 01:29:39;;;;;;;0.17;0.17;;;;;;;12.12;45.57;99503.31;5094668;28;20290;-69
2023/04/25 01:32:06;;;;;;;0.10;0.10;;;;;;;12.08;45.63;99505.81;5069591;28;20128;-70
2023/04/25 01:34:33;;;;;;;0.10;0.10;;;;;;;12.11;45.68;99512.66;5086519;28;20490;-70
2023/04/25 01:37:01;;;;;;;0.15;0.15;;;;;;;12.08;45.50;99502.28;5110446;27;20179;-69
2023/04/25 01:39:30;;;;;;;0.73;0.20;;;;;;;12.15;45.47;99503.56;5100187;27;20042;-70
2023/04/25 01:41:56;;;;;;;0.10;0.10;;;;;;;12.23;45.23;99504.84;5089379;27;20050;-69
2023/04/25 01:44:23;;;;;;;0.10;0.10;;;;;;;12.25;45.21;99501.78;5097526;28;20088;-69
2023/04/25 01:46:49;;;;;;;0.20;0.20;;;;;;;12.27;45.09;99500.38;5100397;27;20486;-69
2023/04/25 01:49:15;;;;;;;0.10;0.10;;;;;;;12.32;44.92;99503.06;5116161;27;20484;-69
2023/04/25 01:51:44;;;;;;;0.10;0.10;;;;;;;12.38;44.97;99498.31;5100376;27;20051;-69
2023/04/25 01:54:11;;;;;;;0.20;0.20;;;;;;;12.45;44.76;99497.97;5079780;28;20056;-69
2023/04/25 01:56:40;;;;;;;0.10;0.10;;;;;;;12.46;44.73;99497.69;5070605;28;20414;-70
2023/04/25 01:59:08;;;;;;;0.10;0.10;;;;;;;12.52;44.72;99492.94;5091767;28;20088;-71
2023/04/25 02:02:03;;;;;;;0.20;0.20;;;;;;;12.56;44.87;99495.91;5053319;27;20583;-69
2023/04/25 02:04:31;;;;;;;0.38;0.30;;;;;;;12.54;45.03;99487.16;5099597;27;20043;-70
2023/04/25 02:06:58;;;;;;;0.63;0.38;;;;;;;12.53;45.25;99497.31;5096005;27;20077;-70
2023/04/25 02:09:31;;;;;;;0.28;0.28;;;;;;;12.52;44.98;99481.97;5074882;27;20065;-70
2023/04/25 02:12:00;;;;;;;0.10;0.10;;;;;;;12.58;44.94;99485.47;5072828;27;20039;-69
2023/04/25 02:14:55;;;;;;;0.17;0.17;;;;;;;12.63;44.99;99488.94;5093277;27;20152;-70
2023/04/25 02:17:45;;;;;;;0.20;0.20;;;;;;;12.60;44.91;99489.53;5095089;28;20054;-69
2023/04/25 02:20:12;;;;;;;0.20;0.20;;;;;;;12.50;44.97;99483.38;5107165;27;20204;-70
2023/04/25 02:22:39;;;;;;;0.17;0.17;;;;;;;12.59;45.00;99489.84;5106022;27;20293;-70
2023/04/25 02:25:07;;;;;;;0.30;0.30;;;;;;;12.66;45.08;99490.28;5086918;27;20063;-68
2023/04/25 02:27:35;;;;;;;0.10;0.10;;;;;;;12.73;44.88;99490.75;5076952;27;20076;-70
2023/04/25 02:30:01;;;;;;;0.10;0.10;;;;;;;12.69;45.21;99483.41;5100829;27;20074;-69
2023/04/25 02:32:30;;;;;;;0.10;0.10;;;;;;;12.73;45.29;99495.41;5108128;27;20158;-70
2023/04/25 02:34:58;;;;;;;0.10;0.10;;;;;;;12.79;45.13;99487.91;5089940;28;20055;-70
2023/04/25 02:37:26;;;;;;;0.15;0.15;;;;;;;12.75;45.13;99487.69;5083532;28;20050;-69
2023/04/25 02:39:52;;;;;;;0.10;0.10;;;;;;;12.71;45.21;99484.72;5071605;27;20039;-69
2023/04/25 02:42:18;;;;;;;0.20;0.20;;;;;;;12.73;45.47;99484.41;5105256;28;20108;-70
2023/04/25 02:44:46;;;;;;;0.20;0.20;;;;;;;12.76;45.58;99497.53;5105454;27;20537;-70
2023/04/25 02:47:12;;;;;;;;;;;;;;;12.75;45.92;99498.66;5085720;28;20079;-69
2023/04/25 02:49:38;;;;;;;0.38;0.30;;;;;;;12.69;46.21;99500.66;5101239;28;20017;-70
2023/04/25 02:52:04;;;;;;;0.20;0.20;;;;;;;12.65;46.87;99496.88;5111600;27;20055;-70
2023/04/25 02:54:30;;;;;;;0.17;0.17;;;;;;;12.61;46.94;99504.06;5092273;28;20154;-71
2023/04/25 02:56:57;;;;;;;0.30;0.25;;;;;;;12.63;46.69;99510.06;5084951;27;20093;-70
2023/04/25 02:59:27;;;;;;;0.20;0.20;;;;;;;12.61;46.84;99509.56;5092494;27;20045;-71
2023/04/25 03:01:55;;;;;;;0.30;0.20;;;;;;;12.57;47.00;99508.53;5123616;27;20503;-71
2023/04/25 03:04:23;;;;;;;0.30;0.30;;;;;;;12.56;47.24;99512.34;5089290;27;20515;-70
2023/04/25 03:06:50;;;;;;;0.22;0.22;;;;;;;12.57;47.21;99506.59;5083897;28;20058;-71
2023/04/25 03:09:16;;;;;;;0.20;0.20;;;;;;;12.62;47.27;99516.69;5119000;27;20387;-71
2023/04/25 03:11:44;;;;;;;0.15;0.15;;;;;;;12.62;47.54;99513.94;5077415;28;20043;-72
2023/04/25 03:14:11;;;;;;;0.20;0.20;;;;;;;12.59;47.77;99520.81;5070762;27;20047;-71
2023/04/25 03:16:38;;;;;;;0.25;0.20;;;;;;;12.62;47.62;99513.94;5102563;28;20178;-71
2023/04/25 03:19:06;;;;;;;0.10;0.10;;;;;;;12.67;47.62;99510.31;5101897;28;20464;-72
2023/04/25 03:21:34;;;;;;;0.20;0.20;;;;;;;12.74;47.57;99514.31;5069380;28;20325;-72
2023/04/25 03:24:03;;;;;;;0.28;0.28;;;;;;;12.65;47.57;99516.06;5076013;27;20047;-71
2023/04/25 03:26:29;;;;;;;0.10;0.10;;;;;;;12.61;47.81;99521.31;5077763;27;20120;-72
2023/04/25 03:28:55;;;;;;;0.20;0.20;;;;;;;12.56;48.19;99523.31;5117542;27;20039;-72
2023/04/25 03:31:22;;;;;;;0.20;0.20;;;;;;;12.56;48.19;99524.16;5115636;27;20065;-71
2023/04/25 03:33:48;;;;;;;0.22;0.22;;;;;;;12.55;48.29;99525.25;5074391;28;20536;-71
2023/04/25 03:36:17;;;;;;;0.17;0.17;;;;;;;12.62;48.30;99517.47;5100014;27;20043;-70
2023/04/25 03:38:43;;;;;;;;;;;;;;;12.63;48.13;99516.38;5068610;27;20047;-71
2023/04/25 03:41:12;;;;;;;0.30;0.30;;;;;;;12.66;48.30;99525.13;5096482;28;20390;-71
2023/04/25 03:43:42;;;;;;;0.30;0.20;;;;;;;12.57;48.24;99514.00;5082293;28;20047;-71
2023/04/25 03:46:12;;;;;;;0.20;0.20;;;;;;;12.62;48.78;99525.69;5102745;27;20474;-71
2023/04/25 03:48:39;;;;;;;0.20;0.20;;;;;;;12.57;48.83;99511.28;5078450;27;20050;-71
2023/04/25 03:51:06;;;;;;;0.22;0.22;;;;;;;12.56;48.86;99517.84;5091232;27;20142;-71
2023/04/25 03:53:38;;;;;;;0.20;0.20;;;;;;;12.55;49.04;99510.72;5098178;27;20533;-71
2023/04/25 03:56:36;;;;;;;0.20;0.20;;;;;;;12.58;49.08;99518.38;5096784;27;20047;-71
2023/04/25 03:59:12;;;;;;;0.20;0.20;;;;;;;12.56;49.34;99513.19;5075722;28;20092;-71
2023/04/25 04:01:39;;;;;;;0.23;0.23;;;;;;;12.65;49.18;99509.78;5093873;28;20062;-71
2023/04/25 04:04:05;;;;;;;0.20;0.20;;;;;;;12.69;49.30;99519.06;5094878;28;20483;-70
2023/04/25 04:06:31;;;;;;;0.20;0.20;;;;;;;12.59;49.42;99512.59;5079676;28;20138;-70
2023/04/25 04:09:09;;;;;;;0.20;0.20;;;;;;;12.66;49.38;99516.91;5088759;28;21155;-70
2023/04/25 04:11:38;;;;;;;0.20;0.20;;;;;;;12.62;50.01;99519.41;5093612;28;20050;-70
2023/04/25 04:14:05;;;;;;;0.20;0.20;;;;;;;12.55;50.14;99513.47;5116777;28;20043;-70
2023/04/25 04:16:31;;;;;;;0.20;0.20;;;;;;;12.58;50.19;99510.16;5106428;28;20122;-70
2023/04/25 04:18:58;;;;;;;0.13;0.13;;;;;;;12.69;50.12;99519.84;5119273;28;20055;-70
2023/04/25 04:21:27;;;;;;;0.20;0.20;;;;;;;12.74;49.96;99522.53;5080724;28;20467;-70
2023/04/25 04:23:57;;;;;;;0.20;0.20;;;;;;;12.85;49.75;99519.63;5090209;28;20048;-70
2023/04/25 04:26:26;;;;;;;0.63;0.20;;;;;;;12.94;49.56;99514.28;5079348;28;20122;-70
2023/04/25 04:28:59;;;;;;;0.20;0.20;;;;;;;12.96;49.56;99514.84;5065217;28;20039;-70
2023/04/25 04:31:55;;;;;;;0.20;0.20;;;;;;;13.04;49.36;99506.75;5129035;28;20039;-71
2023/04/25 04:34:21;;;;;;;0.20;0.20;;;;;;;13.20;49.06;99514.72;5079944;28;20047;-71
2023/04/25 04:36:48;;;;;;;0.22;0.22;;;;;;;13.19;49.12;99513.09;5108338;28;20109;-71
2023/04/25 04:39:14;;;;;;;0.10;0.10;;;;;;;13.22;49.04;99514.41;5083617;28;20040;-70
2023/04/25 04:41:56;;;;;;;0.20;0.20;;;;;;;13.21;49.07;99521.84;5103994;28;20043;-71
2023/04/25 04:44:40;;;;;;;0.25;0.20;;;;;;;13.32;48.79;99517.00;5091119;28;20124;-71
2023/04/25 04:47:33;;;;;;;0.20;0.20;;;;;;;13.36;48.40;99517.22;5074674;28;20048;-71
2023/04/25 04:50:18;;;;;;;0.20;0.20;;;;;;;13.32;48.56;99514.25;5102163;28;20047;-71
2023/04/25 04:53:14;;;;;;;0.20;0.20;;;;;;;13.39;48.66;99514.66;5036182;28;20139;-71
2023/04/25 04:56:04;;;;;;;0.20;0.20;;;;;;;13.47;48.50;99503.03;5064354;27;20411;-71
2023/04/25 04:58:50;;;;;;;0.20;0.20;;;;;;;13.62;48.20;99501.13;5082090;28;20088;-71
2023/04/25 05:01:40;;;;;;;0.20;0.20;;;;;;;13.72;48.28;99502.88;5057795;27;20628;-71
2023/04/25 05:04:19;;;;;;;0.30;0.30;;;;;;;13.78;48.17;99503.59;5084063;27;20056;-72
2023/04/25 05:07:01;;;;;;;0.20;0.20;;;;;;;13.86;48.14;99498.22;5122209;27;20116;-72
2023/04/25 05:09:40;;;;;;;0.40;0.25;;;;;;;14.00;47.71;99503.72;5107831;27;20047;-72
2023/04/25 05:12:32;;;;;;;0.30;0.30;;;;;;;14.02;47.15;99508.91;5076243;27;20638;-71
2023/04/25 05:15:17;;;;;;;0.20;0.20;;;;;;;14.02;47.54;99504.22;5093043;28;20684;-71
2023/04/25 05:18:12;;;;;;;0.20;0.20;;;;;;;14.10;47.48;99504.63;5034238;28;20049;-71
2023/04/25 05:20:46;;;;;;;0.20;0.20;;;;;;;14.14;47.65;99502.91;5095875;27;20496;-71
2023/04/25 05:23:45;;;;;;;0.30;0.30;;;;;;;14.25;47.56;99503.50;5051698;27;20537;-71
2023/04/25 05:26:31;;;;;;;0.30;0.30;;;;;;;14.37;47.34;99498.28;5067827;27;20048;-71
2023/04/25 05:29:07;;;;;;;0.20;0.20;;;;;;;14.46;47.05;99503.88;5111233;27;20434;-71
2023/04/25 05:31:41;;;;;;;0.20;0.20;;;;;;;14.57;47.27;99493.47;5105152;28;20051;-71
2023/04/25 05:34:10;;;;;;;0.30;0.30;;;;;;;14.68;47.20;99502.31;5090155;28;20091;-71
2023/04/25 05:36:57;;;;;;;0.30;0.30;;;;;;;14.81;47.10;99497.94;5120236;27;20413;-70
2023/04/25 05:39:24;;;;;;;0.40;0.40;;;;;;;14.91;46.62;99499.63;5105239;27;20573;-70
2023/04/25 05:42:07;;;;;;;0.20;0.20;;;;;;;14.93;46.55;99489.94;5086337;27;20134;-70
2023/04/25 05:45:04;;;;;;;0.20;0.20;;;;;;;15.12;46.12;99492.50;5029547;28;20452;-70
2023/04/25 05:47:58;;;;;;;0.20;0.20;;;;;;;15.10;46.04;99485.69;5090099;27;20051;-70
2023/04/25 05:50:53;;;;;;;0.20;0.20;;;;;;;15.21;45.94;99491.75;5091826;28;20144;-70
2023/04/25 05:53:45;;;;;;;0.80;0.20;;;;;;;15.27;45.88;99487.72;5082740;27;20048;-70
2023/04/25 05:56:13;;;;;;;0.20;0.20;;;;;;;15.35;45.65;99491.66;5068813;28;20506;-70
2023/04/25 05:58:40;;;;;;;0.30;0.30;;;;;;;15.50;45.48;99482.22;5095904;28;20531;-70
2023/04/25 06:01:10;;;;;;;0.30;0.30;;;;;;;15.67;44.86;99478.72;5104958;27;20039;-70
2023/04/25 06:03:38;;;;;;;0.30;0.30;;;;;;;15.75;44.46;99464.19;5107557;27;20074;-71
2023/04/25 06:06:05;;;;;;;0.20;0.20;;;;;;;15.83;44.27;99476.38;5101922;27;20104;-69
2023/04/25 06:08:32;;;;;;;0.20;0.20;;;;;;;15.86;44.04;99457.25;5118458;27;20084;-70
2023/04/25 06:10:58;;;;;;;0.20;0.20;;;;;;;15.94;44.26;99465.91;5121826;27;20138;-70
2023/04/25 06:13:25;;;;;;;0.30;0.30;;;;;;;16.05;43.59;99456.22;5104821;27;20156;-70
2023/04/25 06:15:51;;;;;;;0.20;0.20;;;;;;;16.09;43.26;99451.66;5097731;27;20535;-70
2023/04/25 06:18:17;;;;;;;0.30;0.30;;;;;;;16.14;43.11;99454.25;5094338;27;20067;-70
2023/04/25 06:20:45;;;;;;;0.30;0.30;;;;;;;16.35;42.72;99450.91;5117988;27;20146;-71
2023/04/25 06:23:12;;;;;;;0.40;0.40;;;;;;;16.58;42.12;99462.63;5107956;27;20309;-70
2023/04/25 06:25:48;;;;;;;0.30;0.30;;;;;;;16.71;41.91;99455.31;5084183;27;20043;-70
2023/04/25 06:28:14;;;;;;;0.37;0.37;;;;;;;16.73;40.90;99461.31;5109626;27;20581;-70
2023/04/25 06:30:42;;;;;;;0.30;0.30;;;;;;;16.72;40.96;99458.91;5095006;27;20047;-70
2023/04/25 06:33:12;;;;;;;0.30;0.30;;;;;;;16.88;40.90;99445.41;5108746;27;20051;-70
2023/04/25 06:35:39;;;;;;;0.30;0.30;;;;;;;16.90;40.45;99440.38;5081789;27;20570;-70
2023/04/25 06:38:11;;;;;;;0.30;0.30;;;;;;;16.95;40.20;99442.97;5084873;27;20071;-71
2023/04/25 06:40:39;;;;;;;0.22;0.22;;;;;;;17.14;40.10;99441.84;5085257;28;20154;-70
2023/04/25 06:43:06;;;;;;;0.30;0.30;;;;;;;17.15;39.58;99446.22;5105036;27;20047;-70
2023/04/25 06:45:54;;;;;;;0.30;0.30;;;;;;;17.30;39.12;99444.88;5130571;27;20153;-70
2023/04/25 06:48:22;;;;;;;0.30;0.30;;;;;;;17.61;38.36;99446.56;5085842;27;20043;-70
2023/04/25 06:50:49;;;;;;;0.35;0.30;;;;;;;17.72;37.73;99422.16;5098041;28;20159;-70
2023/04/25 06:53:17;;;;;;;0.63;0.30;;;;;;;17.95;37.55;99452.28;5085084;28;20142;-69
2023/04/25 06:55:46;;;;;;;0.30;0.30;;;;;;;17.96;36.91;99448.38;5094810;28;20054;-71
2023/04/25 06:58:22;;;;;;;0.35;0.35;;;;;;;18.02;36.99;99452.59;4758904;27;9999751;-72
2023/04/25 07:01:06;;;;;;;0.30;0.30;;;;;;;18.16;36.88;99440.50;5111552;27;20048;-71
2023/04/25 07:03:33;;;;;;;0.35;0.35;;;;;;;18.43;36.42;99455.78;5111805;27;20051;-72
2023/04/25 07:06:05;;;;;;;0.40;0.40;;;;;;;18.63;35.93;99450.59;5086123;27;20062;-72
2023/04/25 07:08:33;;;;;;;0.40;0.40;;;;;;;18.51;36.09;99449.38;5103013;27;20301;-72
2023/04/25 07:11:00;;;;;;;0.30;0.30;;;;;;;18.48;36.17;99449.22;5086346;27;20050;-72
2023/04/25 07:13:26;;;;;;;0.30;0.30;;;;;;;18.54;36.10;99443.16;5105668;27;20533;-70
2023/04/25 07:15:53;;;;;;;0.30;0.30;;;;;;;18.70;35.86;99448.09;5121261;27;20057;-70
2023/04/25 07:18:21;;;;;;;0.30;0.30;;;;;;;18.80;35.53;99442.13;5108963;27;20324;-70
2023/04/25 07:20:47;;;;;;;0.30;0.30;;;;;;;19.06;34.90;99445.84;5069622;27;20043;-70
2023/04/25 07:23:14;;;;;;;0.30;0.30;;;;;;;19.21;35.19;99430.56;5109081;27;20358;-70
2023/04/25 07:25:41;;;;;;;0.45;0.45;;;;;;;19.54;34.68;99438.00;5094316;28;20047;-70
2023/04/25 07:28:08;;;;;;;1.00;0.40;;;;;;;19.68;33.99;99444.03;5078802;27;20112;-70
2023/04/25 07:30:36;;;;;;;;;;;;;;;19.76;33.63;99447.03;5092367;27;20134;-70
2023/04/25 07:33:04;;;;;;;0.40;0.40;;;;;;;19.48;33.02;99433.81;5089052;27;20362;-69
2023/04/25 07:35:30;;;;;;;0.30;0.30;;;;;;;19.34;33.37;99437.72;5093769;28;20062;-70
2023/04/25 07:37:57;;;;;;;0.30;0.30;;;;;;;19.40;33.02;99444.69;5098347;27;20486;-69
2023/04/25 07:40:24;;;;;;;0.43;0.43;;;;;;;19.53;33.54;99439.16;5082404;27;20501;-69
2023/04/25 07:43:07;;;;;;;0.40;0.40;;;;;;;19.62;33.50;99431.53;5064758;28;20128;-69
2023/04/25 07:45:41;;;;;;;0.40;0.40;;;;;;;19.86;33.06;99435.50;5087425;27;20060;-70
2023/04/25 07:48:07;;;;;;;0.30;0.30;;;;;;;19.81;33.02;99435.69;5089268;28;20054;-70
2023/04/25 07:50:36;;;;;;;0.40;0.40;;;;;;;19.47;33.75;99444.13;5075217;28;20044;-70
2023/04/25 07:53:03;;;;;;;0.30;0.30;;;;;;;18.98;34.79;99448.34;5103779;28;20043;-70
2023/04/25 07:55:39;;;;;;;0.50;0.50;;;;;;;18.97;34.64;99449.50;5088981;27;20134;-70
2023/04/25 07:58:16;;;;;;;0.30;0.30;;;;;;;19.56;33.50;99444.81;5100806;28;20162;-72
2023/04/25 08:00:44;;;;;;;0.55;0.50;;;;;;;19.99;32.82;99439.09;5104059;28;20044;-72
2023/04/25 08:03:39;;;;;;;0.30;0.30;;;;;;;20.48;31.67;99438.22;5089042;28;20648;-72
2023/04/25 08:06:11;;;;;;;0.40;0.40;;;;;;;20.30;31.78;99447.97;5082692;28;20047;-72
2023/04/25 08:08:47;;;;;;;0.30;0.30;;;;;;;19.83;32.16;99450.06;5074048;28;20146;-72
2023/04/25 08:11:17;;;;;;;0.52;0.52;;;;;;;19.78;32.55;99448.31;5092784;28;20044;-70
2023/04/25 08:13:45;;;;;;;0.60;0.60;;;;;;;20.65;31.92;99444.66;5083203;28;20128;-70
2023/04/25 08:16:11;;;;;;;0.50;0.50;;;;;;;21.49;30.52;99433.84;5088075;28;20079;-70
2023/04/25 08:18:38;;;;;;;0.75;0.60;;;;;;;22.12;29.67;99412.75;5094509;28;20075;-73
2023/04/25 08:21:04;;;;;;;0.50;0.50;;;;;;;22.39;29.03;99426.88;5093683;28;20056;-73
2023/04/25 08:23:30;;;;;;;0.50;0.50;;;;;;;22.60;29.01;99428.53;5064955;28;20564;-71
2023/04/25 08:26:12;;;;;;;0.52;0.52;;;;;;;22.44;28.12;99429.34;5062592;28;20176;-70
2023/04/25 08:28:41;;;;;;;1.10;0.50;;;;;;;22.44;28.31;99434.13;5080607;28;20128;-70
2023/04/25 08:31:10;;;;;;;0.40;0.40;;;;;;;21.52;29.08;99417.28;5081759;28;20222;-70
2023/04/25 08:33:52;;;;;;;0.60;0.60;;;;;;;20.72;29.83;99425.41;5076227;28;20654;-70
2023/04/25 08:36:27;;;;;;;0.50;0.50;;;;;;;21.35;29.34;99406.50;5097752;28;20208;-70
2023/04/25 08:38:54;;;;;;;0.50;0.50;;;;;;;21.95;28.85;99408.41;5102469;28;20584;-70
2023/04/25 08:41:22;;;;;;;0.68;0.68;;;;;;;22.10;28.53;99421.47;5102208;28;20054;-70
2023/04/25 08:43:49;;;;;;;0.60;0.60;;;;;;;22.47;27.87;99411.94;5100788;28;20052;-70
2023/04/25 08:46:18;;;;;;;0.60;0.60;;;;;;;22.62;27.64;99412.25;5083630;28;20470;-70
2023/04/25 08:49:03;;;;;;;0.60;0.60;;;;;;;22.69;26.95;99414.38;5100394;28;20048;-70
2023/04/25 08:51:32;;;;;;;0.70;0.70;;;;;;;22.84;26.89;99413.50;5095410;28;20052;-70
2023/04/25 08:54:09;;;;;;;1.17;0.65;;;;;;;22.87;26.08;99411.97;5083547;28;20400;-70
2023/04/25 08:56:35;;;;;;;0.50;0.50;;;;;;;22.61;26.23;99413.41;5070105;28;20048;-73
2023/04/25 08:59:03;;;;;;;0.47;0.47;;;;;;;22.34;25.72;99408.47;5082940;28;20475;-72
2023/04/25 09:01:31;;;;;;;0.50;0.50;;;;;;;21.81;26.30;99403.28;5078161;28;20063;-72
2023/04/25 09:03:57;;;;;;;0.40;0.40;;;;;;;21.61;27.18;99400.41;5071037;28;20072;-72
2023/04/25 09:06:24;;;;;;;0.50;0.50;;;;;;;21.57;27.24;99396.75;5068158;28;20075;-72
2023/04/25 09:08:50;;;;;;;0.60;0.60;;;;;;;21.91;26.84;99399.97;5076712;28;20037;-72
2023/04/25 09:11:17;;;;;;;0.60;0.60;;;;;;;22.68;25.51;99399.66;5079586;28;20531;-72
2023/04/25 09:13:44;;;;;;;0.63;0.63;;;;;;;23.32;24.87;99393.72;5077789;28;20052;-72
2023/04/25 09:16:17;;;;;;;0.70;0.70;;;;;;;24.10;23.83;99386.19;5089858;28;20055;-72
2023/04/25 09:19:03;;;;;;;0.70;0.70;;;;;;;24.78;23.37;99383.47;5089423;28;20177;-72
2023/04/25 09:21:34;;;;;;;0.70;0.70;;;;;;;25.28;23.18;99387.97;5066047;28;20044;-72
2023/04/25 09:24:05;;;;;;;0.70;0.70;;;;;;;25.92;22.63;99386.13;5080720;28;20044;-71
2023/04/25 09:26:34;;;;;;;0.90;0.90;;;;;;;26.68;21.64;99378.13;5076483;28;20468;-70
2023/04/25 09:29:07;;;;;;;0.90;0.90;;;;;;;27.09;20.99;99374.28;5075116;28;20512;-70
2023/04/25 09:31:34;;;;;;;0.90;0.90;;;;;;;26.96;21.43;99368.22;5075462;28;20046;-72
2023/04/25 09:34:04;;;;;;;0.90;0.90;;;;;;;27.19;20.80;99369.88;5056782;28;20079;-71
2023/04/25 09:36:40;;;;;;;0.90;0.90;;;;;;;27.65;20.37;99373.13;5085062;28;20564;-71
2023/04/25 09:39:28;;;;;;;1.00;1.00;;;;;;;27.52;19.84;99370.72;5076335;28;20060;-71
2023/04/25 09:42:03;;;;;;;1.00;1.00;;;;;;;27.62;19.96;99368.28;5074919;28;20055;-71
2023/04/25 09:44:31;;;;;;;1.00;1.00;;;;;;;27.38;19.64;99373.50;5050471;28;20047;-71
2023/04/25 09:46:58;;;;;;;1.00;1.00;;;;;;;27.20;20.25;99368.66;5052371;28;20048;-71
2023/04/25 09:49:28;;;;;;;1.33;1.10;;;;;;;27.39;20.31;99359.03;5090388;28;20128;-72
2023/04/25 09:52:06;;;;;;;0.90;0.90;;;;;;;27.21;20.37;99363.84;5080020;28;20467;-71
2023/04/25 09:54:39;;;;;;;0.90;0.90;;;;;;;26.13;20.79;99354.66;5070792;28;20063;-71
2023/04/25 09:57:29;;;;;;;0.90;0.90;;;;;;;25.69;21.49;99355.56;5088411;27;20494;-71
2023/04/25 10:00:00;;;;;;;0.80;0.80;;;;;;;25.32;21.21;99357.25;5086240;27;20091;-77
2023/04/25 10:02:35;;;;;;;0.70;0.70;;;;;;;24.50;22.42;99347.59;5108510;27;20062;-75
2023/04/25 10:05:08;;;;;;;0.80;0.80;;;;;;;24.27;23.18;99351.31;5095868;28;20134;-76
2023/04/25 10:07:39;;;;;;;1.10;1.10;;;;;;;24.56;23.09;99353.66;5084105;28;20138;-76
2023/04/25 10:10:13;;;;;;;1.10;1.10;;;;;;;25.94;21.54;99360.56;5090630;27;20434;-76
2023/04/25 10:12:40;;;;;;;1.10;1.10;;;;;;;26.98;19.80;99354.59;5076550;28;20511;-75
2023/04/25 10:15:08;;;;;;;;;;;;;;;28.19;18.60;99341.34;5097719;27;20142;-76
2023/04/25 10:17:35;;;;;;;1.10;1.10;;;;;;;28.83;18.34;99337.44;5083892;27;19923;-75
2023/04/25 10:20:06;;;;;;;1.25;1.20;;;;;;;28.75;18.86;99335.84;5078399;28;20043;-75
2023/04/25 10:22:36;;;;;;;1.20;1.20;;;;;;;29.09;18.24;99340.09;5112782;27;20174;-75
2023/04/25 10:25:04;;;;;;;1.10;1.10;;;;;;;29.22;18.01;99329.13;5099610;27;20134;-71
2023/04/25 10:27:32;;;;;;;1.30;1.20;;;;;;;28.96;18.60;99329.31;5111039;27;20078;-75
2023/04/25 10:30:04;;;;;;;;;;;;;;;28.51;18.79;99329.97;5083696;27;20520;-70
2023/04/25 10:32:32;;;;;;;1.30;1.20;;;;;;;28.99;18.50;99322.88;5094793;27;20038;-74
2023/04/25 10:35:09;;;;;;;0.90;0.90;;;;;;;29.08;18.24;99322.41;5117089;27;20078;-75
2023/04/25 10:37:37;;;;;;;1.30;1.20;;;;;;;29.03;18.10;99314.41;5117528;27;20043;-75
2023/04/25 10:40:09;;;;;;;1.38;1.27;;;;;;;29.29;17.62;99310.16;5105184;27;20148;-75
2023/04/25 10:42:36;;;;;;;1.30;1.20;;;;;;;30.02;17.31;99314.31;5089771;27;20057;-75
2023/04/25 10:45:05;;;;;;;0.60;0.60;;;;;;;28.93;18.10;99306.84;5099191;27;20039;-75
2023/04/25 10:47:43;;;;;;;0.50;0.50;;;;;;;27.02;20.34;99304.94;5084150;27;20099;-75
2023/04/25 10:50:10;;;;;;;0.53;0.53;;;;;;;25.67;21.70;99304.78;5112235;27;20085;-71
2023/04/25 10:52:39;;;;;;;0.50;0.50;;;;;;;24.64;22.80;99302.25;5097949;27;20047;-70
2023/04/25 10:55:06;;;;;;;1.02;0.60;;;;;;;24.75;22.74;99297.59;5113956;27;20054;-71
2023/04/25 10:57:38;;;;;;;1.10;1.10;;;;;;;25.25;22.29;99284.47;5104471;28;20138;-70
2023/04/25 11:00:13;;;;;;;1.30;1.20;;;;;;;26.53;20.92;99290.41;5102285;27;20051;-70
2023/04/25 11:02:47;;;;;;;0.60;0.60;;;;;;;27.00;20.22;99281.28;5092222;27;20458;-70
2023/04/25 11:05:22;;;;;;;0.50;0.50;;;;;;;25.74;21.30;99283.25;5106445;27;20113;-70
2023/04/25 11:07:52;;;;;;;0.50;0.50;;;;;;;24.34;22.95;99286.34;5087900;28;20415;-71
2023/04/25 11:10:19;;;;;;;0.50;0.50;;;;;;;23.55;23.99;99275.72;5095207;28;20573;-71
2023/04/25 11:12:47;;;;;;;0.90;0.90;;;;;;;23.86;23.88;99273.75;5077355;28;20175;-70
2023/04/25 11:15:14;;;;;;;1.00;1.00;;;;;;;25.12;22.49;99272.78;5112425;27;20368;-70
2023/04/25 11:17:40;;;;;;;0.60;0.60;;;;;;;25.75;21.53;99276.44;5106588;27;20127;-70
2023/04/25 11:20:11;;;;;;;0.52;0.52;;;;;;;25.05;22.32;99265.94;5104878;28;20309;-70
2023/04/25 11:22:40;;;;;;;0.50;0.50;;;;;;;24.35;23.24;99258.06;5067194;28;20070;-70
2023/04/25 11:25:10;;;;;;;0.57;0.57;;;;;;;23.91;24.09;99253.09;5085021;27;20052;-71
2023/04/25 11:27:51;;;;;;;0.90;0.90;;;;;;;24.18;23.76;99251.06;5057744;27;20051;-70
2023/04/25 11:30:18;;;;;;;1.10;1.10;;;;;;;24.95;22.86;99244.28;5094208;27;20055;-70
2023/04/25 11:32:45;;;;;;;0.50;0.50;;;;;;;25.38;22.54;99243.81;5095155;27;20181;-70
2023/04/25 11:35:11;;;;;;;;;;;;;;;24.81;23.17;99244.97;5113177;27;20640;-70
2023/04/25 11:37:39;;;;;;;0.50;0.50;;;;;;;23.90;23.95;99246.72;5113723;27;19968;-70
2023/04/25 11:40:11;;;;;;;0.40;0.40;;;;;;;23.08;25.08;99239.53;5109113;27;20107;-70
2023/04/25 11:42:39;;;;;;;0.60;0.60;;;;;;;22.81;25.81;99230.31;5110571;27;20062;-71
2023/04/25 11:45:06;;;;;;;0.80;0.80;;;;;;;23.06;25.73;99235.53;5090789;27;20116;-70
2023/04/25 11:47:33;;;;;;;0.73;0.73;;;;;;;23.74;25.14;99227.38;5107482;27;20518;-74
2023/04/25 11:50:01;;;;;;;0.70;0.70;;;;;;;24.21;24.48;99236.34;5072289;28;20052;-70
2023/04/25 11:52:36;;;;;;;0.70;0.70;;;;;;;24.41;24.01;99230.59;5095818;27;20488;-70